sensor_id;sensor_type;location;lat;lon;timestamp;pressure;altitude;pressure_sealevel;temperature;humidity
77381;BME280;66439;50.106;10.996;2023-07-02T00:00:17;97842.60;;;19.64;63.31
77381;BME280;66439;50.106;10.996;2023-07-02T00:02:41;97845.38;;;19.62;63.66
77381;BME280;66439;50.106;10.996;2023-07-02T00:04:45;97849.23;;;19.60;63.63
77381;BME280;66439;50.106;10.996;2023-07-02T00:06:48;97847.56;;;19.59;63.58
77381;BME280;66439;50.106;10.996;2023-07-02T00:08:51;97848.25;;;19.56;63.75
77381;BME280;66439;50.106;10.996;2023-07-02T00:10:54;97847.33;;;19.57;63.61
77381;BME280;66439;50.106;10.996;2023-07-02T00:12:57;97847.93;;;19.59;63.92
77381;BME280;66439;50.106;10.996;2023-07-02T00:15:00;97853.77;;;19.60;63.78
77381;BME280;66439;50.106;10.996;2023-07-02T00:17:05;97851.73;;;19.62;63.48
77381;BME280;66439;50.106;10.996;2023-07-02T00:19:09;97854.41;;;19.63;63.70
77381;BME280;66439;50.106;10.996;2023-07-02T00:21:13;97854.19;;;19.65;63.52
77381;BME280;66439;50.106;10.996;2023-07-02T00:23:17;97854.95;;;19.66;63.83
77381;BME280;66439;50.106;10.996;2023-07-02T00:25:20;97855.86;;;19.65;63.86
77381;BME280;66439;50.106;10.996;2023-07-02T00:27:23;97852.73;;;19.63;63.98
77381;BME280;66439;50.106;10.996;2023-07-02T00:29:27;97857.20;;;19.62;64.01
77381;BME280;66439;50.106;10.996;2023-07-02T00:31:29;97856.20;;;19.61;63.88
77381;BME280;66439;50.106;10.996;2023-07-02T00:33:33;97858.35;;;19.60;64.02
77381;BME280;66439;50.106;10.996;2023-07-02T00:35:36;97858.49;;;19.58;64.15
77381;BME280;66439;50.106;10.996;2023-07-02T00:37:41;97850.14;;;19.55;63.92
77381;BME280;66439;50.106;10.996;2023-07-02T00:39:44;97852.61;;;19.54;63.83
77381;BME280;66439;50.106;10.996;2023-07-02T00:41:47;97856.75;;;19.54;63.72
77381;BME280;66439;50.106;10.996;2023-07-02T00:43:50;97863.91;;;19.53;64.12
77381;BME280;66439;50.106;10.996;2023-07-02T00:45:56;97862.15;;;19.53;64.15
77381;BME280;66439;50.106;10.996;2023-07-02T00:47:59;97861.44;;;19.53;64.25
77381;BME280;66439;50.106;10.996;2023-07-02T00:50:02;97863.00;;;19.53;64.36
77381;BME280;66439;50.106;10.996;2023-07-02T00:52:06;97864.95;;;19.52;64.45
77381;BME280;66439;50.106;10.996;2023-07-02T00:54:10;97862.55;;;19.51;64.55
77381;BME280;66439;50.106;10.996;2023-07-02T00:56:12;97864.08;;;19.53;64.42
77381;BME280;66439;50.106;10.996;2023-07-02T00:58:15;97862.53;;;19.54;64.42
77381;BME280;66439;50.106;10.996;2023-07-02T01:00:18;97860.65;;;19.58;64.22
77381;BME280;66439;50.106;10.996;2023-07-02T01:02:25;97859.30;;;19.57;64.53
77381;BME280;66439;50.106;10.996;2023-07-02T01:04:34;97860.59;;;19.55;64.58
77381;BME280;66439;50.106;10.996;2023-07-02T01:06:40;97856.42;;;19.53;64.38
77381;BME280;66439;50.106;10.996;2023-07-02T01:08:47;97861.45;;;19.53;64.50
77381;BME280;66439;50.106;10.996;2023-07-02T01:10:50;97859.08;;;19.52;64.36
77381;BME280;66439;50.106;10.996;2023-07-02T01:12:55;97862.25;;;19.51;64.50
77381;BME280;66439;50.106;10.996;2023-07-02T01:15:03;97860.33;;;19.47;64.54
77381;BME280;66439;50.106;10.996;2023-07-02T01:17:10;97860.70;;;19.46;64.40
77381;BME280;66439;50.106;10.996;2023-07-02T01:19:40;97861.13;;;19.45;64.47
77381;BME280;66439;50.106;10.996;2023-07-02T01:21:49;97861.55;;;19.43;64.65
77381;BME280;66439;50.106;10.996;2023-07-02T01:23:52;97862.47;;;19.42;64.35
77381;BME280;66439;50.106;10.996;2023-07-02T01:25:59;97862.13;;;19.41;64.48
77381;BME280;66439;50.106;10.996;2023-07-02T01:28:06;97856.02;;;19.39;64.30
77381;BME280;66439;50.106;10.996;2023-07-02T01:30:09;97860.17;;;19.38;64.10
77381;BME280;66439;50.106;10.996;2023-07-02T01:32:14;97861.69;;;19.38;64.17
77381;BME280;66439;50.106;10.996;2023-07-02T01:34:18;97859.52;;;19.37;64.08
77381;BME280;66439;50.106;10.996;2023-07-02T01:36:21;97863.17;;;19.33;63.91
77381;BME280;66439;50.106;10.996;2023-07-02T01:38:27;97866.81;;;19.30;64.13
77381;BME280;66439;50.106;10.996;2023-07-02T01:40:30;97867.42;;;19.26;64.23
77381;BME280;66439;50.106;10.996;2023-07-02T01:42:33;97865.84;;;19.22;64.11
77381;BME280;66439;50.106;10.996;2023-07-02T01:44:38;97868.46;;;19.18;64.12
77381;BME280;66439;50.106;10.996;2023-07-02T01:46:41;97873.69;;;19.17;64.15
77381;BME280;66439;50.106;10.996;2023-07-02T01:48:43;97874.26;;;19.15;64.27
77381;BME280;66439;50.106;10.996;2023-07-02T01:50:49;97873.27;;;19.14;64.40
77381;BME280;66439;50.106;10.996;2023-07-02T01:52:54;97872.31;;;19.14;64.36
77381;BME280;66439;50.106;10.996;2023-07-02T01:54:57;97875.33;;;19.13;64.28
77381;BME280;66439;50.106;10.996;2023-07-02T01:57:00;97877.16;;;19.14;64.34
77381;BME280;66439;50.106;10.996;2023-07-02T01:59:03;97877.15;;;19.13;64.18
77381;BME280;66439;50.106;10.996;2023-07-02T02:01:06;97877.73;;;19.11;64.23
77381;BME280;66439;50.106;10.996;2023-07-02T02:03:11;97873.27;;;19.10;64.17
77381;BME280;66439;50.106;10.996;2023-07-02T02:05:15;97877.46;;;19.09;64.12
77381;BME280;66439;50.106;10.996;2023-07-02T02:07:20;97879.88;;;19.10;64.03
77381;BME280;66439;50.106;10.996;2023-07-02T02:09:23;97885.05;;;19.09;63.86
77381;BME280;66439;50.106;10.996;2023-07-02T02:11:26;97886.67;;;19.11;63.93
77381;BME280;66439;50.106;10.996;2023-07-02T02:13:28;97890.29;;;19.10;63.84
77381;BME280;66439;50.106;10.996;2023-07-02T02:15:31;97891.34;;;19.09;63.85
77381;BME280;66439;50.106;10.996;2023-07-02T02:17:34;97890.38;;;19.10;63.69
77381;BME280;66439;50.106;10.996;2023-07-02T02:19:37;97890.11;;;19.10;63.79
77381;BME280;66439;50.106;10.996;2023-07-02T02:21:41;97891.50;;;19.08;63.94
77381;BME280;66439;50.106;10.996;2023-07-02T02:23:44;97895.95;;;19.06;64.10
77381;BME280;66439;50.106;10.996;2023-07-02T02:25:47;97894.75;;;19.04;64.15
77381;BME280;66439;50.106;10.996;2023-07-02T02:27:50;97899.11;;;19.03;64.07
77381;BME280;66439;50.106;10.996;2023-07-02T02:29:53;97903.48;;;19.02;63.98
77381;BME280;66439;50.106;10.996;2023-07-02T02:32:02;97903.98;;;19.01;64.20
77381;BME280;66439;50.106;10.996;2023-07-02T02:34:07;97907.55;;;19.00;64.00
77381;BME280;66439;50.106;10.996;2023-07-02T02:36:10;97911.84;;;18.98;64.09
77381;BME280;66439;50.106;10.996;2023-07-02T02:38:13;97911.45;;;18.96;64.22
77381;BME280;66439;50.106;10.996;2023-07-02T02:40:18;97911.23;;;18.95;63.97
77381;BME280;66439;50.106;10.996;2023-07-02T02:42:21;97913.70;;;18.94;64.09
77381;BME280;66439;50.106;10.996;2023-07-02T02:44:23;97916.04;;;18.93;64.00
77381;BME280;66439;50.106;10.996;2023-07-02T02:46:27;97916.13;;;18.95;64.01
77381;BME280;66439;50.106;10.996;2023-07-02T02:48:33;97915.27;;;18.96;64.08
77381;BME280;66439;50.106;10.996;2023-07-02T02:50:37;97914.19;;;18.96;64.02
77381;BME280;66439;50.106;10.996;2023-07-02T02:52:45;97909.64;;;19.00;63.90
77381;BME280;66439;50.106;10.996;2023-07-02T02:54:50;97912.28;;;19.00;63.87
77381;BME280;66439;50.106;10.996;2023-07-02T02:56:55;97914.65;;;19.00;63.92
77381;BME280;66439;50.106;10.996;2023-07-02T02:58:58;97914.92;;;18.99;63.68
77381;BME280;66439;50.106;10.996;2023-07-02T03:01:00;97911.69;;;19.00;63.72
77381;BME280;66439;50.106;10.996;2023-07-02T03:03:03;97910.29;;;18.99;63.70
77381;BME280;66439;50.106;10.996;2023-07-02T03:05:07;97902.80;;;18.99;63.55
77381;BME280;66439;50.106;10.996;2023-07-02T03:07:15;97905.36;;;18.97;63.64
77381;BME280;66439;50.106;10.996;2023-07-02T03:09:19;97908.42;;;18.96;63.65
77381;BME280;66439;50.106;10.996;2023-07-02T03:11:22;97910.38;;;18.97;63.56
77381;BME280;66439;50.106;10.996;2023-07-02T03:13:26;97915.31;;;18.95;63.52
77381;BME280;66439;50.106;10.996;2023-07-02T03:15:30;97915.21;;;18.89;63.64
77381;BME280;66439;50.106;10.996;2023-07-02T03:17:34;97914.79;;;18.85;63.58
77381;BME280;66439;50.106;10.996;2023-07-02T03:19:37;97919.09;;;18.83;63.36
77381;BME280;66439;50.106;10.996;2023-07-02T03:21:42;97924.18;;;18.80;63.56
77381;BME280;66439;50.106;10.996;2023-07-02T03:23:45;97920.77;;;18.78;63.30
77381;BME280;66439;50.106;10.996;2023-07-02T03:25:49;97915.46;;;18.76;63.48
77381;BME280;66439;50.106;10.996;2023-07-02T03:27:52;97922.09;;;18.76;63.63
77381;BME280;66439;50.106;10.996;2023-07-02T03:29:57;97922.67;;;18.75;63.42
77381;BME280;66439;50.106;10.996;2023-07-02T03:32:01;97923.55;;;18.76;63.53
77381;BME280;66439;50.106;10.996;2023-07-02T03:34:09;97922.86;;;18.78;63.70
77381;BME280;66439;50.106;10.996;2023-07-02T03:36:12;97927.46;;;18.76;63.60
77381;BME280;66439;50.106;10.996;2023-07-02T03:38:16;97930.25;;;18.73;63.71
77381;BME280;66439;50.106;10.996;2023-07-02T03:40:19;97932.79;;;18.72;63.72
77381;BME280;66439;50.106;10.996;2023-07-02T03:42:22;97924.19;;;18.70;63.85
77381;BME280;66439;50.106;10.996;2023-07-02T03:44:25;97932.45;;;18.69;63.86
77381;BME280;66439;50.106;10.996;2023-07-02T03:46:27;97936.38;;;18.68;63.78
77381;BME280;66439;50.106;10.996;2023-07-02T03:48:31;97936.23;;;18.65;63.71
77381;BME280;66439;50.106;10.996;2023-07-02T03:50:34;97936.23;;;18.64;63.76
77381;BME280;66439;50.106;10.996;2023-07-02T03:52:38;97939.77;;;18.63;63.75
77381;BME280;66439;50.106;10.996;2023-07-02T03:54:42;97937.16;;;18.60;63.66
77381;BME280;66439;50.106;10.996;2023-07-02T03:56:47;97933.94;;;18.57;63.66
77381;BME280;66439;50.106;10.996;2023-07-02T03:58:52;97934.55;;;18.54;63.72
77381;BME280;66439;50.106;10.996;2023-07-02T04:00:57;97934.75;;;18.52;63.70
77381;BME280;66439;50.106;10.996;2023-07-02T04:02:59;97937.73;;;18.48;63.61
77381;BME280;66439;50.106;10.996;2023-07-02T04:05:03;97943.64;;;18.48;63.78
77381;BME280;66439;50.106;10.996;2023-07-02T04:07:06;97943.38;;;18.49;63.67
77381;BME280;66439;50.106;10.996;2023-07-02T04:09:09;97944.11;;;18.47;63.80
77381;BME280;66439;50.106;10.996;2023-07-02T04:11:12;97946.42;;;18.45;63.80
77381;BME280;66439;50.106;10.996;2023-07-02T04:13:17;97947.53;;;18.44;63.82
77381;BME280;66439;50.106;10.996;2023-07-02T04:15:20;97956.45;;;18.42;63.92
77381;BME280;66439;50.106;10.996;2023-07-02T04:17:22;97962.70;;;18.39;63.97
77381;BME280;66439;50.106;10.996;2023-07-02T04:19:27;97965.96;;;18.37;64.23
77381;BME280;66439;50.106;10.996;2023-07-02T04:21:30;97964.26;;;18.34;64.12
77381;BME280;66439;50.106;10.996;2023-07-02T04:23:36;97968.00;;;18.32;64.27
77381;BME280;66439;50.106;10.996;2023-07-02T04:25:41;97965.54;;;18.29;64.19
77381;BME280;66439;50.106;10.996;2023-07-02T04:28:04;97964.95;;;18.29;64.20
77381;BME280;66439;50.106;10.996;2023-07-02T04:30:07;97967.89;;;18.32;64.28
77381;BME280;66439;50.106;10.996;2023-07-02T04:32:11;97966.75;;;18.34;64.09
77381;BME280;66439;50.106;10.996;2023-07-02T04:34:15;97969.48;;;18.37;63.90
77381;BME280;66439;50.106;10.996;2023-07-02T04:36:18;97968.22;;;18.42;64.11
77381;BME280;66439;50.106;10.996;2023-07-02T04:38:20;97970.15;;;18.46;63.83
77381;BME280;66439;50.106;10.996;2023-07-02T04:40:25;97970.73;;;18.48;63.76
77381;BME280;66439;50.106;10.996;2023-07-02T04:42:28;97977.80;;;18.52;63.69
77381;BME280;66439;50.106;10.996;2023-07-02T04:44:34;97977.64;;;18.57;63.61
77381;BME280;66439;50.106;10.996;2023-07-02T04:46:39;97983.60;;;18.61;63.23
77381;BME280;66439;50.106;10.996;2023-07-02T04:48:44;97988.90;;;18.66;63.37
77381;BME280;66439;50.106;10.996;2023-07-02T04:50:46;97990.27;;;18.71;63.17
77381;BME280;66439;50.106;10.996;2023-07-02T04:52:51;97992.41;;;18.76;63.13
77381;BME280;66439;50.106;10.996;2023-07-02T04:54:54;97994.83;;;18.80;62.67
77381;BME280;66439;50.106;10.996;2023-07-02T04:56:58;97994.83;;;18.84;62.76
77381;BME280;66439;50.106;10.996;2023-07-02T04:59:01;97998.32;;;18.85;62.51
77381;BME280;66439;50.106;10.996;2023-07-02T05:01:04;97999.65;;;18.83;62.59
77381;BME280;66439;50.106;10.996;2023-07-02T05:03:07;98003.50;;;18.80;62.29
77381;BME280;66439;50.106;10.996;2023-07-02T05:05:12;98010.27;;;18.78;62.32
77381;BME280;66439;50.106;10.996;2023-07-02T05:07:17;98011.83;;;18.75;62.42
77381;BME280;66439;50.106;10.996;2023-07-02T05:09:21;98008.65;;;18.72;62.22
77381;BME280;66439;50.106;10.996;2023-07-02T05:11:24;98005.80;;;18.72;62.35
77381;BME280;66439;50.106;10.996;2023-07-02T05:13:27;98008.27;;;18.72;62.25
77381;BME280;66439;50.106;10.996;2023-07-02T05:15:30;98015.08;;;18.71;61.79
77381;BME280;66439;50.106;10.996;2023-07-02T05:17:32;98014.48;;;18.66;61.46
77381;BME280;66439;50.106;10.996;2023-07-02T05:19:38;98014.55;;;18.63;61.33
77381;BME280;66439;50.106;10.996;2023-07-02T05:21:43;98011.35;;;18.58;61.23
77381;BME280;66439;50.106;10.996;2023-07-02T05:23:47;98016.13;;;18.56;61.02
77381;BME280;66439;50.106;10.996;2023-07-02T05:25:50;98015.59;;;18.56;60.79
77381;BME280;66439;50.106;10.996;2023-07-02T05:27:53;98022.44;;;18.57;60.53
77381;BME280;66439;50.106;10.996;2023-07-02T05:29:56;98024.55;;;18.57;60.19
77381;BME280;66439;50.106;10.996;2023-07-02T05:32:08;98021.64;;;18.56;60.08
77381;BME280;66439;50.106;10.996;2023-07-02T05:34:12;98022.42;;;18.56;59.87
77381;BME280;66439;50.106;10.996;2023-07-02T05:36:16;98022.19;;;18.54;59.77
77381;BME280;66439;50.106;10.996;2023-07-02T05:38:19;98022.95;;;18.54;59.62
77381;BME280;66439;50.106;10.996;2023-07-02T05:40:21;98020.90;;;18.54;59.56
77381;BME280;66439;50.106;10.996;2023-07-02T05:42:24;98025.46;;;18.53;59.35
77381;BME280;66439;50.106;10.996;2023-07-02T05:44:27;98030.19;;;18.48;58.70
77381;BME280;66439;50.106;10.996;2023-07-02T05:46:35;98029.73;;;18.42;58.49
77381;BME280;66439;50.106;10.996;2023-07-02T05:48:42;98031.27;;;18.35;58.12
77381;BME280;66439;50.106;10.996;2023-07-02T05:50:46;98034.21;;;18.30;58.38
77381;BME280;66439;50.106;10.996;2023-07-02T05:52:50;98034.05;;;18.30;58.32
77381;BME280;66439;50.106;10.996;2023-07-02T05:54:56;98042.64;;;18.29;58.43
77381;BME280;66439;50.106;10.996;2023-07-02T05:56:58;98044.74;;;18.29;58.31
77381;BME280;66439;50.106;10.996;2023-07-02T05:59:01;98046.67;;;18.28;58.07
77381;BME280;66439;50.106;10.996;2023-07-02T06:01:10;98044.89;;;18.28;57.77
77381;BME280;66439;50.106;10.996;2023-07-02T06:03:13;98051.30;;;18.27;57.61
77381;BME280;66439;50.106;10.996;2023-07-02T06:05:21;98050.97;;;18.27;57.60
77381;BME280;66439;50.106;10.996;2023-07-02T06:07:24;98053.56;;;18.24;57.51
77381;BME280;66439;50.106;10.996;2023-07-02T06:09:29;98056.67;;;18.24;57.63
77381;BME280;66439;50.106;10.996;2023-07-02T06:11:32;98057.30;;;18.26;57.41
77381;BME280;66439;50.106;10.996;2023-07-02T06:13:42;98058.02;;;18.27;57.48
77381;BME280;66439;50.106;10.996;2023-07-02T06:15:45;98060.83;;;18.29;57.48
77381;BME280;66439;50.106;10.996;2023-07-02T06:17:49;98062.10;;;18.31;57.36
77381;BME280;66439;50.106;10.996;2023-07-02T06:19:55;98062.79;;;18.37;57.11
77381;BME280;66439;50.106;10.996;2023-07-02T06:21:57;98061.76;;;18.41;57.08
77381;BME280;66439;50.106;10.996;2023-07-02T06:24:01;98061.48;;;18.50;57.11
77381;BME280;66439;50.106;10.996;2023-07-02T06:26:06;98064.04;;;18.60;56.94
77381;BME280;66439;50.106;10.996;2023-07-02T06:28:09;98063.36;;;18.70;56.61
77381;BME280;66439;50.106;10.996;2023-07-02T06:30:12;98070.86;;;18.75;56.30
77381;BME280;66439;50.106;10.996;2023-07-02T06:32:15;98072.02;;;18.77;56.16
77381;BME280;66439;50.106;10.996;2023-07-02T06:34:19;98076.15;;;18.76;55.85
77381;BME280;66439;50.106;10.996;2023-07-02T06:36:22;98079.55;;;18.76;56.01
77381;BME280;66439;50.106;10.996;2023-07-02T06:38:29;98076.70;;;18.77;56.05
77381;BME280;66439;50.106;10.996;2023-07-02T06:40:32;98084.23;;;18.77;55.79
77381;BME280;66439;50.106;10.996;2023-07-02T06:42:37;98084.77;;;18.76;55.70
77381;BME280;66439;50.106;10.996;2023-07-02T06:44:41;98087.36;;;18.76;55.69
77381;BME280;66439;50.106;10.996;2023-07-02T06:46:46;98090.84;;;18.71;55.76
77381;BME280;66439;50.106;10.996;2023-07-02T06:48:48;98087.34;;;18.68;55.85
77381;BME280;66439;50.106;10.996;2023-07-02T06:50:52;98093.54;;;18.64;55.52
77381;BME280;66439;50.106;10.996;2023-07-02T06:52:55;98095.63;;;18.60;55.59
77381;BME280;66439;50.106;10.996;2023-07-02T06:55:03;98094.14;;;18.56;55.71
77381;BME280;66439;50.106;10.996;2023-07-02T06:57:08;98097.33;;;18.59;55.97
77381;BME280;66439;50.106;10.996;2023-07-02T06:59:11;98097.95;;;18.64;55.98
77381;BME280;66439;50.106;10.996;2023-07-02T07:01:16;98101.98;;;18.67;55.88
77381;BME280;66439;50.106;10.996;2023-07-02T07:03:20;98096.57;;;18.70;55.75
77381;BME280;66439;50.106;10.996;2023-07-02T07:05:23;98092.21;;;18.73;55.85
77381;BME280;66439;50.106;10.996;2023-07-02T07:07:27;98091.03;;;18.78;56.02
77381;BME280;66439;50.106;10.996;2023-07-02T07:09:30;98093.15;;;18.83;55.80
77381;BME280;66439;50.106;10.996;2023-07-02T07:11:33;98090.02;;;18.88;55.61
77381;BME280;66439;50.106;10.996;2023-07-02T07:13:37;98090.83;;;18.93;55.54
77381;BME280;66439;50.106;10.996;2023-07-02T07:15:42;98088.48;;;19.00;55.52
77381;BME280;66439;50.106;10.996;2023-07-02T07:17:46;98085.48;;;19.06;55.40
77381;BME280;66439;50.106;10.996;2023-07-02T07:19:49;98081.74;;;19.14;55.39
77381;BME280;66439;50.106;10.996;2023-07-02T07:21:53;98083.02;;;19.23;55.40
77381;BME280;66439;50.106;10.996;2023-07-02T07:23:57;98074.00;;;19.33;54.90
77381;BME280;66439;50.106;10.996;2023-07-02T07:26:00;98068.64;;;19.41;55.00
77381;BME280;66439;50.106;10.996;2023-07-02T07:28:02;98071.91;;;19.51;54.61
77381;BME280;66439;50.106;10.996;2023-07-02T07:30:06;98075.34;;;19.56;54.13
77381;BME280;66439;50.106;10.996;2023-07-02T07:32:08;98072.79;;;19.60;54.16
77381;BME280;66439;50.106;10.996;2023-07-02T07:34:12;98070.02;;;19.67;53.90
77381;BME280;66439;50.106;10.996;2023-07-02T07:36:17;98070.75;;;19.71;53.38
77381;BME280;66439;50.106;10.996;2023-07-02T07:38:20;98072.73;;;19.73;53.51
77381;BME280;66439;50.106;10.996;2023-07-02T07:40:23;98074.86;;;19.78;53.38
77381;BME280;66439;50.106;10.996;2023-07-02T07:42:26;98076.02;;;19.83;53.22
77381;BME280;66439;50.106;10.996;2023-07-02T07:44:29;98074.98;;;19.88;53.11
77381;BME280;66439;50.106;10.996;2023-07-02T07:46:33;98073.61;;;19.94;52.97
77381;BME280;66439;50.106;10.996;2023-07-02T07:48:37;98078.94;;;19.99;52.75
77381;BME280;66439;50.106;10.996;2023-07-02T07:50:40;98082.16;;;20.04;52.65
77381;BME280;66439;50.106;10.996;2023-07-02T07:52:45;98080.95;;;20.09;52.48
77381;BME280;66439;50.106;10.996;2023-07-02T07:54:48;98083.30;;;20.14;52.27
77381;BME280;66439;50.106;10.996;2023-07-02T07:56:51;98087.70;;;20.16;52.06
77381;BME280;66439;50.106;10.996;2023-07-02T07:59:00;98090.38;;;20.14;51.53
77381;BME280;66439;50.106;10.996;2023-07-02T08:01:06;98089.45;;;20.13;51.41
77381;BME280;66439;50.106;10.996;2023-07-02T08:03:10;98091.15;;;20.17;51.44
77381;BME280;66439;50.106;10.996;2023-07-02T08:05:13;98099.54;;;20.22;51.17
77381;BME280;66439;50.106;10.996;2023-07-02T08:07:18;98099.84;;;20.25;51.00
77381;BME280;66439;50.106;10.996;2023-07-02T08:09:20;98102.19;;;20.30;51.13
77381;BME280;66439;50.106;10.996;2023-07-02T08:11:23;98100.60;;;20.36;51.03
77381;BME280;66439;50.106;10.996;2023-07-02T08:13:26;98098.80;;;20.44;50.97
77381;BME280;66439;50.106;10.996;2023-07-02T08:15:29;98105.16;;;20.49;50.08
77381;BME280;66439;50.106;10.996;2023-07-02T08:17:31;98100.53;;;20.50;50.29
77381;BME280;66439;50.106;10.996;2023-07-02T08:19:34;98101.54;;;20.56;50.37
77381;BME280;66439;50.106;10.996;2023-07-02T08:21:37;98103.02;;;20.61;50.19
77381;BME280;66439;50.106;10.996;2023-07-02T08:23:44;98103.17;;;20.68;50.19
77381;BME280;66439;50.106;10.996;2023-07-02T08:25:47;98101.52;;;20.75;49.79
77381;BME280;66439;50.106;10.996;2023-07-02T08:27:50;98111.05;;;20.79;49.60
77381;BME280;66439;50.106;10.996;2023-07-02T08:29:54;98107.58;;;20.78;49.12
77381;BME280;66439;50.106;10.996;2023-07-02T08:31:57;98106.41;;;20.80;49.19
77381;BME280;66439;50.106;10.996;2023-07-02T08:34:00;98107.92;;;20.83;49.02
77381;BME280;66439;50.106;10.996;2023-07-02T08:36:04;98110.86;;;20.84;48.86
77381;BME280;66439;50.106;10.996;2023-07-02T08:38:07;98110.95;;;20.83;48.52
77381;BME280;66439;50.106;10.996;2023-07-02T08:40:18;98113.27;;;20.83;48.79
77381;BME280;66439;50.106;10.996;2023-07-02T08:42:21;98114.34;;;20.79;48.37
77381;BME280;66439;50.106;10.996;2023-07-02T08:44:26;98112.98;;;20.76;48.72
77381;BME280;66439;50.106;10.996;2023-07-02T08:46:29;98114.33;;;20.74;48.71
77381;BME280;66439;50.106;10.996;2023-07-02T08:48:34;98117.77;;;20.74;48.71
77381;BME280;66439;50.106;10.996;2023-07-02T08:50:37;98116.52;;;20.69;48.40
77381;BME280;66439;50.106;10.996;2023-07-02T08:52:44;98116.48;;;20.63;48.35
77381;BME280;66439;50.106;10.996;2023-07-02T08:54:49;98119.97;;;20.59;48.57
77381;BME280;66439;50.106;10.996;2023-07-02T08:56:52;98121.33;;;20.58;48.82
77381;BME280;66439;50.106;10.996;2023-07-02T08:58:57;98119.69;;;20.57;48.50
77381;BME280;66439;50.106;10.996;2023-07-02T09:01:05;98119.23;;;20.59;48.16
77381;BME280;66439;50.106;10.996;2023-07-02T09:03:15;98122.09;;;20.60;47.94
77381;BME280;66439;50.106;10.996;2023-07-02T09:05:22;98113.16;;;20.57;48.07
77381;BME280;66439;50.106;10.996;2023-07-02T09:07:27;98126.52;;;20.59;48.19
77381;BME280;66439;50.106;10.996;2023-07-02T09:09:30;98122.63;;;20.59;47.99
77381;BME280;66439;50.106;10.996;2023-07-02T09:11:46;98126.15;;;20.63;47.95
77381;BME280;66439;50.106;10.996;2023-07-02T09:13:50;98116.61;;;20.69;48.09
77381;BME280;66439;50.106;10.996;2023-07-02T09:15:54;98122.88;;;20.79;48.07
77381;BME280;66439;50.106;10.996;2023-07-02T09:17:57;98119.05;;;20.82;48.09
77381;BME280;66439;50.106;10.996;2023-07-02T09:20:06;98125.40;;;20.88;47.88
77381;BME280;66439;50.106;10.996;2023-07-02T09:22:11;98123.26;;;20.94;47.93
77381;BME280;66439;50.106;10.996;2023-07-02T09:24:23;98122.58;;;20.97;47.95
77381;BME280;66439;50.106;10.996;2023-07-02T09:26:25;98125.42;;;20.98;47.92
77381;BME280;66439;50.106;10.996;2023-07-02T09:28:28;98127.59;;;20.96;47.67
77381;BME280;66439;50.106;10.996;2023-07-02T09:30:31;98131.67;;;20.94;47.76
77381;BME280;66439;50.106;10.996;2023-07-02T09:32:34;98129.52;;;20.92;47.69
77381;BME280;66439;50.106;10.996;2023-07-02T09:34:38;98131.85;;;20.93;47.86
77381;BME280;66439;50.106;10.996;2023-07-02T09:36:43;98132.73;;;20.96;47.91
77381;BME280;66439;50.106;10.996;2023-07-02T09:38:47;98127.98;;;21.00;47.85
77381;BME280;66439;50.106;10.996;2023-07-02T09:40:52;98128.48;;;21.03;47.82
77381;BME280;66439;50.106;10.996;2023-07-02T09:42:56;98125.26;;;21.06;47.84
77381;BME280;66439;50.106;10.996;2023-07-02T09:45:02;98125.06;;;21.14;47.94
77381;BME280;66439;50.106;10.996;2023-07-02T09:47:07;98126.77;;;21.24;47.96
77381;BME280;66439;50.106;10.996;2023-07-02T09:49:14;98126.95;;;21.30;47.68
77381;BME280;66439;50.106;10.996;2023-07-02T09:51:20;98130.39;;;21.35;47.50
77381;BME280;66439;50.106;10.996;2023-07-02T09:53:23;98129.91;;;21.43;47.47
77381;BME280;66439;50.106;10.996;2023-07-02T09:55:26;98124.48;;;21.52;47.43
77381;BME280;66439;50.106;10.996;2023-07-02T09:57:29;98126.15;;;21.63;47.37
77381;BME280;66439;50.106;10.996;2023-07-02T09:59:35;98121.02;;;21.73;46.87
77381;BME280;66439;50.106;10.996;2023-07-02T10:01:39;98121.79;;;21.83;46.67
77381;BME280;66439;50.106;10.996;2023-07-02T10:03:42;98117.19;;;21.92;46.33
77381;BME280;66439;50.106;10.996;2023-07-02T10:05:44;98111.83;;;22.02;46.41
77381;BME280;66439;50.106;10.996;2023-07-02T10:07:48;98116.42;;;22.12;45.56
77381;BME280;66439;50.106;10.996;2023-07-02T10:09:51;98113.39;;;22.18;45.47
77381;BME280;66439;50.106;10.996;2023-07-02T10:11:53;98122.55;;;22.16;44.73
77381;BME280;66439;50.106;10.996;2023-07-02T10:13:59;98118.74;;;22.09;45.09
77381;BME280;66439;50.106;10.996;2023-07-02T10:16:03;98122.00;;;22.05;45.28
77381;BME280;66439;50.106;10.996;2023-07-02T10:18:06;98129.09;;;22.03;45.37
77381;BME280;66439;50.106;10.996;2023-07-02T10:20:09;98127.04;;;21.99;45.19
77381;BME280;66439;50.106;10.996;2023-07-02T10:22:16;98131.05;;;21.96;45.37
77381;BME280;66439;50.106;10.996;2023-07-02T10:24:20;98131.58;;;21.93;45.29
77381;BME280;66439;50.106;10.996;2023-07-02T10:26:24;98133.05;;;21.89;45.22
77381;BME280;66439;50.106;10.996;2023-07-02T10:28:29;98134.89;;;21.85;45.11
77381;BME280;66439;50.106;10.996;2023-07-02T10:30:38;98138.52;;;21.81;44.61
77381;BME280;66439;50.106;10.996;2023-07-02T10:32:41;98132.98;;;21.77;44.63
77381;BME280;66439;50.106;10.996;2023-07-02T10:34:45;98133.42;;;21.78;44.36
77381;BME280;66439;50.106;10.996;2023-07-02T10:36:53;98128.98;;;21.78;45.16
77381;BME280;66439;50.106;10.996;2023-07-02T10:39:01;98133.27;;;21.82;45.16
77381;BME280;66439;50.106;10.996;2023-07-02T10:41:05;98134.45;;;21.85;44.95
77381;BME280;66439;50.106;10.996;2023-07-02T10:43:09;98135.48;;;21.89;45.07
77381;BME280;66439;50.106;10.996;2023-07-02T10:45:11;98133.10;;;21.92;45.18
77381;BME280;66439;50.106;10.996;2023-07-02T10:47:15;98137.31;;;21.99;44.91
77381;BME280;66439;50.106;10.996;2023-07-02T10:49:30;98140.52;;;22.00;43.93